Time;durP1;ratioP1;P1;durP2;ratioP2;P2;SDS_P1;SDS_P2;PMS_P1;PMS_P2;Temp;Humidity;BMP_temperature;BMP_pressure;BME280_temperature;BME280_humidity;BME280_pressure;Samples;Min_cycle;Max_cycle;Signal;HPM_P1;HPM_P2
2021/09/19 00:02:00;;;;;;;8.27;5.13;;;15.40;99.90;;;;;;4983401;28;20114;-79
2021/09/19 00:04:27;;;;;;;5.30;4.80;;;15.40;99.90;;;;;;4978436;28;20051;-78
2021/09/19 00:06:54;;;;;;;6.72;4.90;;;15.40;99.90;;;;;;4977952;28;20090;-78
2021/09/19 00:09:22;;;;;;;5.75;4.90;;;15.40;99.90;;;;;;4975468;28;20047;-77
2021/09/19 00:11:49;;;;;;;6.28;4.63;;;15.40;99.90;;;;;;4977211;28;20085;-77
2021/09/19 00:14:17;;;;;;;5.47;4.40;;;15.40;99.90;;;;;;4975870;28;20047;-78
2021/09/19 00:16:44;;;;;;;7.03;4.60;;;15.40;99.90;;;;;;4976155;28;20140;-78
2021/09/19 00:19:12;;;;;;;7.85;4.78;;;15.30;99.90;;;;;;4977190;28;20129;-77
2021/09/19 00:21:39;;;;;;;5.57;4.68;;;15.30;99.90;;;;;;4977045;28;20085;-78
2021/09/19 00:24:06;;;;;;;5.03;4.32;;;15.30;99.90;;;;;;4977876;28;20050;-78
2021/09/19 00:26:35;;;;;;;5.10;4.43;;;15.30;99.90;;;;;;4979912;28;20133;-78
2021/09/19 00:29:02;;;;;;;8.00;4.82;;;15.30;99.90;;;;;;4977563;28;20101;-78
2021/09/19 00:31:29;;;;;;;5.75;4.75;;;15.30;99.90;;;;;;4977456;28;20129;-78
2021/09/19 00:33:56;;;;;;;4.85;4.32;;;15.30;99.90;;;;;;4984607;28;20042;-79
2021/09/19 00:36:23;;;;;;;5.40;4.65;;;15.20;99.90;;;;;;4982256;28;20086;-79
2021/09/19 00:38:50;;;;;;;6.10;4.60;;;15.20;99.90;;;;;;4984249;28;20110;-79
2021/09/19 00:41:17;;;;;;;5.40;4.72;;;15.20;99.90;;;;;;4989285;28;20106;-79
2021/09/19 00:43:45;;;;;;;5.63;4.47;;;15.20;99.90;;;;;;4988613;28;20085;-79
2021/09/19 00:46:12;;;;;;;5.53;4.65;;;15.20;99.90;;;;;;4987095;28;20057;-79
2021/09/19 00:48:39;;;;;;;5.53;4.63;;;15.20;99.90;;;;;;4986640;28;20054;-79
2021/09/19 00:51:06;;;;;;;5.53;4.47;;;15.20;99.90;;;;;;4983581;28;20051;-78
2021/09/19 00:53:33;;;;;;;7.30;4.53;;;15.10;99.90;;;;;;4983035;28;20130;-79
2021/09/19 00:56:06;;;;;;;5.07;4.40;;;15.10;99.90;;;;;;4983183;28;20054;-78
2021/09/19 00:58:34;;;;;;;6.93;4.63;;;15.20;99.90;;;;;;4983132;28;20114;-78
2021/09/19 01:01:03;;;;;;;4.85;4.32;;;15.20;99.90;;;;;;4984430;28;20071;-79
2021/09/19 01:03:30;;;;;;;7.07;4.32;;;15.20;99.90;;;;;;4984652;28;20142;-79
2021/09/19 01:05:57;;;;;;;5.57;4.65;;;15.10;99.90;;;;;;4983738;28;20054;-79
2021/09/19 01:08:24;;;;;;;5.68;4.28;;;15.10;99.90;;;;;;4976472;28;20106;-77
2021/09/19 01:10:52;;;;;;;6.22;4.30;;;15.10;99.90;;;;;;4976062;28;20110;-78
2021/09/19 01:13:20;;;;;;;5.75;4.10;;;15.00;99.90;;;;;;4976921;28;20532;-77
2021/09/19 01:15:48;;;;;;;7.90;4.28;;;15.00;99.90;;;;;;4978678;28;20089;-77
2021/09/19 01:18:18;;;;;;;5.18;4.20;;;15.00;99.90;;;;;;4981809;28;20054;-77
2021/09/19 01:20:46;;;;;;;7.28;4.15;;;15.00;99.90;;;;;;4981024;28;20070;-77
2021/09/19 01:23:16;;;;;;;5.55;4.57;;;14.90;99.90;;;;;;5000581;23;20070;-78
2021/09/19 01:25:45;;;;;;;4.82;4.00;;;14.90;99.90;;;;;;4968235;28;20054;-78
2021/09/19 01:28:14;;;;;;;6.78;3.90;;;14.90;99.90;;;;;;4975743;28;20421;-77
2021/09/19 01:30:41;;;;;;;6.07;3.95;;;14.90;99.90;;;;;;4975063;28;20134;-79
2021/09/19 01:33:08;;;;;;;4.50;3.88;;;14.80;99.90;;;;;;4975306;28;20050;-78
2021/09/19 01:35:35;;;;;;;3.75;3.35;;;14.90;99.90;;;;;;4975558;28;20078;-78
2021/09/19 01:38:03;;;;;;;7.53;3.92;;;14.90;99.90;;;;;;4975916;28;20057;-78
2021/09/19 01:40:31;;;;;;;4.60;3.67;;;14.80;99.90;;;;;;4975514;28;20078;-78
2021/09/19 01:43:00;;;;;;;4.80;4.00;;;14.80;99.90;;;;;;4975257;28;20111;-78
2021/09/19 01:45:28;;;;;;;5.10;3.95;;;14.80;99.90;;;;;;4976332;28;20133;-78
2021/09/19 01:47:55;;;;;;;4.57;3.80;;;14.80;99.90;;;;;;4975894;28;20055;-78
2021/09/19 01:50:23;;;;;;;4.65;3.80;;;14.90;99.90;;;;;;4974969;28;20150;-80
2021/09/19 01:52:51;;;;;;;4.57;3.70;;;14.90;99.90;;;;;;4974983;28;20420;-78
2021/09/19 01:55:18;;;;;;;4.00;3.60;;;14.90;99.90;;;;;;4975946;28;20513;-78
2021/09/19 01:57:45;;;;;;;3.78;3.40;;;14.90;99.90;;;;;;4977552;28;20130;-78
2021/09/19 02:00:14;;;;;;;4.70;3.70;;;14.90;99.90;;;;;;4976316;28;20053;-78
2021/09/19 02:02:41;;;;;;;4.35;3.72;;;14.90;99.90;;;;;;4977637;28;20471;-78
2021/09/19 02:05:10;;;;;;;5.43;3.85;;;14.90;99.90;;;;;;4976081;28;20138;-79
2021/09/19 02:07:38;;;;;;;3.92;3.53;;;14.80;99.90;;;;;;4975531;28;20134;-78
2021/09/19 02:10:08;;;;;;;7.38;3.55;;;14.80;99.90;;;;;;4976316;28;20140;-80
2021/09/19 02:12:35;;;;;;;4.85;3.70;;;14.80;99.90;;;;;;4982382;28;20151;-79
2021/09/19 02:15:02;;;;;;;7.20;3.80;;;14.80;99.90;;;;;;4982913;28;20141;-79
2021/09/19 02:17:30;;;;;;;5.68;3.75;;;14.80;99.90;;;;;;4982909;28;20221;-79
2021/09/19 02:19:57;;;;;;;4.82;3.75;;;14.80;99.90;;;;;;4981992;28;20167;-79
2021/09/19 02:22:23;;;;;;;5.75;3.80;;;14.80;99.90;;;;;;4984615;28;20066;-82
2021/09/19 02:24:50;;;;;;;4.65;3.67;;;14.70;99.90;;;;;;4981103;28;20142;-79
2021/09/19 02:27:20;;;;;;;6.97;3.75;;;14.70;99.90;;;;;;4979403;28;20490;-79
2021/09/19 02:29:47;;;;;;;3.90;3.47;;;14.70;99.90;;;;;;4979509;28;20043;-79
2021/09/19 02:32:14;;;;;;;5.47;3.50;;;14.70;99.90;;;;;;4979769;28;20118;-82
2021/09/19 02:34:42;;;;;;;4.50;3.63;;;14.60;99.90;;;;;;4981400;28;20078;-79
2021/09/19 02:37:10;;;;;;;3.95;3.55;;;14.50;99.90;;;;;;4978123;28;20089;-79
2021/09/19 02:39:37;;;;;;;5.28;3.45;;;14.50;99.90;;;;;;4977742;28;20062;-81
2021/09/19 02:42:04;;;;;;;4.10;3.55;;;14.50;99.90;;;;;;4977801;28;20051;-79
2021/09/19 02:44:31;;;;;;;5.13;3.63;;;14.50;99.90;;;;;;4976303;28;20130;-78
2021/09/19 02:46:57;;;;;;;4.47;3.65;;;14.40;99.90;;;;;;4974997;28;20057;-79
2021/09/19 02:49:24;;;;;;;5.63;3.53;;;14.40;99.90;;;;;;4975373;28;20433;-77
2021/09/19 02:51:53;;;;;;;7.28;3.90;;;14.40;99.90;;;;;;4974904;28;20050;-80
2021/09/19 02:54:19;;;;;;;3.90;3.50;;;14.50;99.90;;;;;;4975035;28;20425;-81
2021/09/19 02:56:46;;;;;;;4.07;3.40;;;14.40;99.90;;;;;;4975674;28;20073;-78
2021/09/19 02:59:13;;;;;;;3.92;3.53;;;14.30;99.90;;;;;;4975919;28;20497;-78
2021/09/19 03:01:40;;;;;;;5.45;3.50;;;14.30;99.90;;;;;;4985882;28;20046;-80
2021/09/19 03:04:07;;;;;;;4.63;3.50;;;14.30;99.90;;;;;;4986354;28;20097;-78
2021/09/19 03:06:34;;;;;;;5.18;3.30;;;14.20;99.90;;;;;;4984356;28;20469;-78
2021/09/19 03:09:02;;;;;;;5.63;3.72;;;14.30;99.90;;;;;;4975516;28;20580;-78
2021/09/19 03:11:29;;;;;;;5.15;3.60;;;14.30;99.90;;;;;;4974767;28;20137;-78
2021/09/19 03:13:56;;;;;;;3.85;3.50;;;14.20;99.90;;;;;;4979109;28;20086;-79
2021/09/19 03:16:23;;;;;;;5.03;3.95;;;14.20;99.90;;;;;;4980899;28;20062;-79
2021/09/19 03:18:49;;;;;;;4.38;3.38;;;14.20;99.90;;;;;;4976574;28;20167;-79
2021/09/19 03:21:16;;;;;;;4.85;3.67;;;14.20;99.90;;;;;;4976215;28;20452;-78
2021/09/19 03:23:44;;;;;;;4.68;3.60;;;14.10;99.90;;;;;;4976462;28;20145;-80
2021/09/19 03:26:12;;;;;;;4.25;3.78;;;14.10;99.90;;;;;;4978566;28;20234;-79
2021/09/19 03:28:39;;;;;;;7.03;3.60;;;14.00;99.90;;;;;;4980205;28;20477;-77
2021/09/19 03:31:06;;;;;;;4.68;3.83;;;14.00;99.90;;;;;;4978124;28;20114;-80
2021/09/19 03:33:33;;;;;;;5.22;3.63;;;14.00;99.90;;;;;;4978707;28;20085;-78
2021/09/19 03:35:59;;;;;;;7.18;3.30;;;14.00;99.90;;;;;;4974665;28;20082;-78
2021/09/19 03:38:26;;;;;;;3.92;3.40;;;14.00;99.90;;;;;;4975245;28;20046;-77
2021/09/19 03:40:53;;;;;;;3.90;3.50;;;14.00;99.90;;;;;;4974022;28;20133;-77
2021/09/19 03:43:21;;;;;;;4.10;3.70;;;14.00;99.90;;;;;;4973791;28;20478;-77
2021/09/19 03:45:48;;;;;;;4.50;3.50;;;13.90;99.90;;;;;;4972788;28;20134;-77
2021/09/19 03:48:17;;;;;;;4.28;3.67;;;13.90;99.90;;;;;;4973409;28;20078;-79
2021/09/19 03:50:45;;;;;;;5.03;3.75;;;13.90;99.90;;;;;;4972879;28;20051;-77
2021/09/19 03:53:12;;;;;;;3.90;3.50;;;13.90;99.90;;;;;;4973220;28;20153;-78
2021/09/19 03:55:39;;;;;;;4.43;3.58;;;13.90;99.90;;;;;;4973329;28;20427;-78
2021/09/19 03:58:06;;;;;;;4.03;3.63;;;13.80;99.90;;;;;;4972740;28;20074;-77
2021/09/19 04:00:34;;;;;;;5.70;3.90;;;13.80;99.90;;;;;;4972505;28;20043;-78
2021/09/19 04:03:01;;;;;;;4.32;3.63;;;13.70;99.90;;;;;;4969908;28;20046;-78
2021/09/19 04:05:28;;;;;;;4.45;3.92;;;13.70;99.90;;;;;;4971401;28;20047;-80
2021/09/19 04:07:55;;;;;;;4.95;3.75;;;13.70;99.90;;;;;;4971911;28;20073;-78
2021/09/19 04:10:22;;;;;;;4.22;3.83;;;13.70;99.90;;;;;;4971151;28;20429;-78
2021/09/19 04:12:50;;;;;;;6.05;3.90;;;13.70;99.90;;;;;;4971554;28;20050;-78
2021/09/19 04:15:17;;;;;;;4.63;3.92;;;13.80;99.90;;;;;;4971899;28;20078;-79
2021/09/19 04:17:46;;;;;;;4.35;3.90;;;13.80;99.90;;;;;;4971662;28;20050;-77
2021/09/19 04:20:14;;;;;;;5.45;4.30;;;13.80;99.90;;;;;;4971087;28;20050;-78
2021/09/19 04:22:42;;;;;;;5.35;4.10;;;13.80;99.90;;;;;;4971383;28;20050;-78
2021/09/19 04:25:10;;;;;;;5.13;4.07;;;13.70;99.90;;;;;;4971652;28;20051;-79
2021/09/19 04:27:38;;;;;;;5.55;4.28;;;13.70;99.90;;;;;;4971536;28;20442;-78
2021/09/19 04:30:06;;;;;;;5.43;4.30;;;13.60;99.90;;;;;;4970561;28;20046;-77
2021/09/19 04:32:33;;;;;;;8.20;4.50;;;13.60;99.90;;;;;;4971254;28;20134;-77
2021/09/19 04:35:01;;;;;;;5.18;4.38;;;13.60;99.90;;;;;;4971612;28;20057;-79
2021/09/19 04:37:28;;;;;;;5.90;4.30;;;13.50;99.90;;;;;;4971679;28;20484;-81
2021/09/19 04:39:55;;;;;;;5.38;4.00;;;13.50;99.90;;;;;;4970615;28;20129;-79
2021/09/19 04:42:23;;;;;;;4.80;4.30;;;13.40;99.90;;;;;;4971100;28;20057;-79
2021/09/19 04:44:51;;;;;;;5.18;4.68;;;13.50;99.90;;;;;;4971105;28;20497;-80
2021/09/19 04:47:18;;;;;;;4.68;4.10;;;13.50;99.90;;;;;;4971766;28;20133;-79
2021/09/19 04:49:45;;;;;;;5.10;4.60;;;13.50;99.90;;;;;;4970372;28;20073;-80
2021/09/19 04:52:13;;;;;;;4.90;4.20;;;13.50;99.90;;;;;;4970382;28;20051;-78
2021/09/19 04:54:40;;;;;;;5.20;4.53;;;13.50;99.90;;;;;;4971191;28;20054;-78
2021/09/19 04:57:07;;;;;;;4.90;4.40;;;13.40;99.90;;;;;;4971579;28;20054;-79
2021/09/19 04:59:35;;;;;;;6.60;4.35;;;13.40;99.90;;;;;;4970445;28;20464;-78
2021/09/19 05:02:02;;;;;;;5.60;4.63;;;13.40;99.90;;;;;;4970891;28;20094;-78
2021/09/19 05:04:29;;;;;;;6.45;5.03;;;13.30;99.90;;;;;;4972512;28;20086;-78
2021/09/19 05:06:56;;;;;;;5.60;4.40;;;13.30;99.90;;;;;;4971411;28;20137;-77
2021/09/19 05:09:24;;;;;;;6.00;4.68;;;13.30;99.90;;;;;;4971338;28;20133;-79
2021/09/19 05:11:51;;;;;;;6.07;4.93;;;13.30;99.90;;;;;;4971118;28;20154;-77
2021/09/19 05:14:18;;;;;;;6.82;4.85;;;13.30;99.90;;;;;;4972914;28;20059;-78
2021/09/19 05:16:45;;;;;;;5.32;4.32;;;13.30;99.90;;;;;;4971482;28;20054;-78
2021/09/19 05:19:12;;;;;;;6.22;5.10;;;13.20;99.90;;;;;;4970844;28;20047;-77
2021/09/19 05:21:39;;;;;;;5.75;5.10;;;13.30;99.90;;;;;;4969791;28;20043;-78
2021/09/19 05:24:06;;;;;;;5.85;5.22;;;13.30;99.90;;;;;;4971112;28;20050;-78
2021/09/19 05:26:34;;;;;;;6.00;5.00;;;13.20;99.90;;;;;;4971368;28;20058;-78
2021/09/19 05:29:01;;;;;;;6.53;4.65;;;13.30;99.90;;;;;;4971844;28;20054;-79
2021/09/19 05:31:30;;;;;;;5.20;4.70;;;13.30;99.90;;;;;;4971753;28;20493;-78
2021/09/19 05:34:01;;;;;;;7.47;4.90;;;13.30;99.90;;;;;;4971784;28;20050;-78
2021/09/19 05:36:28;;;;;;;8.15;5.18;;;13.40;99.90;;;;;;4973188;28;20633;-78
2021/09/19 05:38:55;;;;;;;5.82;4.93;;;13.40;99.90;;;;;;4973388;28;20676;-78
2021/09/19 05:41:22;;;;;;;6.82;5.20;;;13.40;99.90;;;;;;4971546;28;20424;-78
2021/09/19 05:43:50;;;;;;;5.88;5.28;;;13.50;99.90;;;;;;4971771;28;20055;-78
2021/09/19 05:46:18;;;;;;;5.65;5.10;;;13.50;99.90;;;;;;4971782;28;20185;-78
2021/09/19 05:48:45;;;;;;;6.60;5.28;;;13.60;99.90;;;;;;4971959;28;20515;-77
2021/09/19 05:51:13;;;;;;;8.20;5.40;;;13.70;99.90;;;;;;4971347;28;20069;-78
2021/09/19 05:53:39;;;;;;;6.90;5.35;;;13.70;99.90;;;;;;4971848;28;20141;-77
2021/09/19 05:56:06;;;;;;;8.20;5.53;;;13.70;99.90;;;;;;4971661;28;20137;-78
2021/09/19 05:58:33;;;;;;;6.03;5.43;;;13.80;99.90;;;;;;4971852;28;20051;-77
2021/09/19 06:01:02;;;;;;;7.25;5.32;;;13.90;99.90;;;;;;4971149;28;20047;-77
2021/09/19 06:03:29;;;;;;;6.57;5.50;;;13.90;99.90;;;;;;4970166;28;20057;-77
2021/09/19 06:05:56;;;;;;;8.00;5.38;;;13.90;99.90;;;;;;4973221;28;20069;-79
2021/09/19 06:08:23;;;;;;;6.38;5.20;;;13.90;99.90;;;;;;4973234;28;20546;-77
2021/09/19 06:10:50;;;;;;;6.43;5.47;;;14.00;99.90;;;;;;4973102;28;20051;-77
2021/09/19 06:13:17;;;;;;;7.45;5.85;;;14.00;99.90;;;;;;4973681;28;20050;-78
2021/09/19 06:15:44;;;;;;;7.53;6.18;;;14.10;99.90;;;;;;4974112;28;20133;-78
2021/09/19 06:18:12;;;;;;;7.57;5.47;;;14.20;99.90;;;;;;4974005;28;20111;-76
2021/09/19 06:20:40;;;;;;;6.55;5.20;;;14.40;99.90;;;;;;4977686;28;20393;-77
2021/09/19 06:23:07;;;;;;;6.45;5.50;;;14.60;99.90;;;;;;4975305;28;20532;-77
2021/09/19 06:25:34;;;;;;;7.80;5.47;;;14.70;99.90;;;;;;4974595;28;20057;-79
2021/09/19 06:28:01;;;;;;;6.45;5.00;;;14.90;99.90;;;;;;4974351;28;20050;-77
2021/09/19 06:30:28;;;;;;;6.90;5.00;;;15.20;99.90;;;;;;4973883;28;20053;-77
2021/09/19 06:32:55;;;;;;;6.03;4.88;;;15.60;99.90;;;;;;4974171;28;20057;-78
2021/09/19 06:35:24;;;;;;;5.95;4.82;;;16.00;99.90;;;;;;4974632;28;20090;-78
2021/09/19 06:37:51;;;;;;;5.35;4.85;;;16.50;99.90;;;;;;4974614;28;20116;-80
2021/09/19 06:40:18;;;;;;;5.72;4.57;;;16.90;99.90;;;;;;4974140;28;20133;-77
2021/09/19 06:42:44;;;;;;;5.32;4.47;;;17.30;99.90;;;;;;4974115;28;20133;-77
2021/09/19 06:45:12;;;;;;;13.70;5.38;;;17.70;99.90;;;;;;4974167;28;20074;-77
2021/09/19 06:47:40;;;;;;;6.57;4.30;;;18.20;99.90;;;;;;4974053;28;20047;-77
2021/09/19 06:50:08;;;;;;;5.28;4.70;;;18.40;99.90;;;;;;4973888;28;20046;-77
2021/09/19 06:52:36;;;;;;;5.80;4.70;;;18.50;99.90;;;;;;4974393;28;20054;-77
2021/09/19 06:55:04;;;;;;;5.60;4.85;;;18.70;99.90;;;;;;4974295;28;20055;-76
2021/09/19 06:57:31;;;;;;;5.38;4.70;;;18.50;99.90;;;;;;4974556;28;20130;-77
2021/09/19 06:59:59;;;;;;;5.38;4.50;;;18.60;99.90;;;;;;4974429;28;20093;-77
2021/09/19 07:02:25;;;;;;;7.53;4.68;;;19.10;99.90;;;;;;4973931;28;20125;-77
2021/09/19 07:04:52;;;;;;;5.25;4.53;;;19.20;99.90;;;;;;4973879;28;20137;-81
2021/09/19 07:07:19;;;;;;;5.80;4.80;;;19.30;99.90;;;;;;4974027;28;20505;-78
2021/09/19 07:09:47;;;;;;;5.13;4.63;;;19.10;99.90;;;;;;4973845;28;20564;-79
2021/09/19 07:12:14;;;;;;;5.00;4.50;;;19.40;99.90;;;;;;4974120;28;20131;-78
2021/09/19 07:14:41;;;;;;;6.35;4.60;;;19.40;99.90;;;;;;4972943;28;20047;-78
2021/09/19 07:17:08;;;;;;;5.38;4.50;;;19.30;99.90;;;;;;4974245;28;20050;-80
2021/09/19 07:19:35;;;;;;;5.82;4.88;;;19.10;99.90;;;;;;4979043;28;20513;-79
2021/09/19 07:24:30;;;;;;;5.90;4.95;;;18.80;99.90;;;;;;4980615;28;20054;-80
2021/09/19 07:26:58;;;;;;;5.00;4.50;;;18.60;99.90;;;;;;4981845;28;20081;-79
2021/09/19 07:29:25;;;;;;;6.40;4.97;;;18.60;99.90;;;;;;4976024;28;20082;-78
2021/09/19 07:31:53;;;;;;;6.50;4.90;;;18.50;99.90;;;;;;4973791;28;20051;-77
2021/09/19 07:34:21;;;;;;;6.72;4.85;;;18.50;99.90;;;;;;4962608;28;20518;-77
2021/09/19 07:36:49;;;;;;;5.97;5.10;;;18.40;99.90;;;;;;4974015;28;20080;-77
2021/09/19 07:39:16;;;;;;;7.00;5.18;;;18.40;99.90;;;;;;4993087;28;20050;-76
2021/09/19 07:41:44;;;;;;;6.50;4.82;;;18.30;99.90;;;;;;4984083;28;20053;-78
2021/09/19 07:44:12;;;;;;;6.20;5.03;;;18.50;99.90;;;;;;4978212;28;20050;-78
2021/09/19 07:46:40;;;;;;;6.20;5.40;;;18.70;99.90;;;;;;4986628;28;20129;-79
2021/09/19 07:49:07;;;;;;;5.93;4.72;;;18.70;99.90;;;;;;4988226;28;20461;-79
2021/09/19 07:51:34;;;;;;;6.47;5.32;;;18.60;99.90;;;;;;4994795;28;20073;-80
2021/09/19 07:54:02;;;;;;;5.20;4.65;;;18.80;99.90;;;;;;4990564;28;20082;-81
2021/09/19 07:56:29;;;;;;;6.00;4.60;;;19.10;99.90;;;;;;4986926;28;20125;-79
2021/09/19 07:58:55;;;;;;;6.53;4.80;;;19.20;99.90;;;;;;4979968;28;20102;-79
2021/09/19 08:01:24;;;;;;;5.55;4.68;;;19.10;99.90;;;;;;4981362;28;20094;-83
2021/09/19 08:03:50;;;;;;;5.43;4.68;;;19.10;99.90;;;;;;4989279;28;20075;-81
2021/09/19 08:06:18;;;;;;;5.82;4.70;;;19.10;99.90;;;;;;4989487;28;20082;-83
2021/09/19 08:08:45;;;;;;;6.30;4.47;;;19.10;99.90;;;;;;4989621;28;20059;-83
2021/09/19 08:11:12;;;;;;;5.70;4.40;;;19.30;99.90;;;;;;4988580;28;20105;-83
2021/09/19 08:13:39;;;;;;;4.88;4.20;;;19.50;99.90;;;;;;4972834;28;20491;-78
2021/09/19 08:16:06;;;;;;;6.28;4.63;;;19.40;99.90;;;;;;4977325;28;20508;-78
2021/09/19 08:18:35;;;;;;;5.63;4.50;;;19.50;99.90;;;;;;4972394;28;20050;-79
2021/09/19 08:21:02;;;;;;;5.28;4.40;;;19.30;99.90;;;;;;4959872;28;20126;-79
2021/09/19 08:23:29;;;;;;;5.35;4.80;;;19.40;99.90;;;;;;4964232;28;20055;-78
2021/09/19 08:25:56;;;;;;;5.68;4.57;;;19.40;99.90;;;;;;4973024;28;20528;-78
2021/09/19 08:28:23;;;;;;;5.43;4.38;;;19.50;99.90;;;;;;4991102;28;20082;-82
2021/09/19 08:30:51;;;;;;;6.55;4.63;;;19.40;99.90;;;;;;4988554;28;20488;-79
2021/09/19 08:33:17;;;;;;;4.82;4.15;;;19.40;99.90;;;;;;4979719;28;20416;-77
2021/09/19 08:35:46;;;;;;;5.07;4.15;;;19.50;99.90;;;;;;4984380;28;20057;-79
2021/09/19 08:38:12;;;;;;;5.47;4.57;;;19.60;99.90;;;;;;4977948;28;20133;-79
2021/09/19 08:40:39;;;;;;;5.38;4.22;;;19.60;99.90;;;;;;4959422;28;20082;-76
2021/09/19 08:43:07;;;;;;;4.35;3.95;;;19.80;99.90;;;;;;4973070;28;20362;-76
2021/09/19 08:45:34;;;;;;;5.28;4.40;;;20.00;99.90;;;;;;4963047;28;20055;-76
2021/09/19 08:48:01;;;;;;;5.47;4.20;;;20.20;99.90;;;;;;4968294;28;20416;-76
2021/09/19 08:50:28;;;;;;;4.03;3.63;;;20.30;99.90;;;;;;4956586;28;20446;-75
2021/09/19 08:52:56;;;;;;;4.47;3.97;;;20.60;99.90;;;;;;4975830;28;20053;-76
2021/09/19 08:55:23;;;;;;;4.45;3.97;;;20.50;99.90;;;;;;4967246;28;20055;-75
2021/09/19 08:57:50;;;;;;;5.18;4.00;;;20.30;99.90;;;;;;4970151;28;20139;-76
2021/09/19 09:00:17;;;;;;;4.40;4.00;;;20.20;99.90;;;;;;4977999;28;20134;-77
2021/09/19 09:02:50;;;;;;;5.97;4.15;;;20.20;99.90;;;;;;4974224;28;20057;-76
2021/09/19 09:05:26;;;;;;;4.20;3.70;;;20.00;99.90;;;;;;4975790;28;20030;-77
2021/09/19 09:07:56;;;;;;;4.60;4.05;;;19.70;99.90;;;;;;4973664;28;20078;-77
2021/09/19 09:10:38;;;;;;;4.30;3.90;;;19.70;99.90;;;;;;4958166;28;20063;-77
2021/09/19 09:13:07;;;;;;;4.30;3.90;;;19.70;99.90;;;;;;4987207;28;20103;-77
2021/09/19 09:15:40;;;;;;;4.90;3.80;;;19.70;99.90;;;;;;4963913;28;20175;-77
2021/09/19 09:18:07;;;;;;;4.20;3.80;;;19.70;99.90;;;;;;4988229;28;20050;-77
2021/09/19 09:20:55;;;;;;;4.63;4.13;;;19.60;99.90;;;;;;4993534;28;20133;-77
2021/09/19 09:23:26;;;;;;;4.75;3.97;;;19.50;99.90;;;;;;4993533;28;20129;-77
2021/09/19 09:26:16;;;;;;;4.57;3.90;;;19.50;99.90;;;;;;4993807;28;20050;-77
2021/09/19 09:28:46;;;;;;;4.72;4.15;;;19.60;99.90;;;;;;4994544;28;20057;-77
2021/09/19 09:31:19;;;;;;;4.55;3.83;;;19.80;99.90;;;;;;4994968;28;20086;-78
2021/09/19 09:33:59;;;;;;;4.78;4.00;;;19.90;99.90;;;;;;4995211;28;20129;-77
2021/09/19 09:36:51;;;;;;;4.15;3.75;;;20.00;99.90;;;;;;4973598;28;20130;-77
2021/09/19 09:39:27;;;;;;;5.90;4.40;;;20.20;99.90;;;;;;4965636;28;20196;-77
2021/09/19 09:41:56;;;;;;;5.07;4.00;;;20.40;99.90;;;;;;4976280;28;20146;-77
2021/09/19 09:44:28;;;;;;;3.90;3.50;;;20.20;99.90;;;;;;4976995;28;20160;-76
2021/09/19 09:46:56;;;;;;;4.18;3.60;;;20.30;99.90;;;;;;4986044;28;20058;-76
2021/09/19 09:49:24;;;;;;;5.20;3.85;;;20.20;99.90;;;;;;4985676;28;20129;-77
2021/09/19 09:51:51;;;;;;;4.50;3.83;;;20.30;99.90;;;;;;4976092;28;20070;-75
2021/09/19 09:54:18;;;;;;;4.72;3.67;;;20.30;99.90;;;;;;4974559;28;20057;-77
2021/09/19 09:56:47;;;;;;;4.40;3.47;;;20.50;99.90;;;;;;4975257;28;20088;-77
2021/09/19 09:59:16;;;;;;;5.65;3.50;;;20.50;99.90;;;;;;4970576;28;20055;-77
2021/09/19 10:01:44;;;;;;;4.20;3.53;;;20.30;99.90;;;;;;4974636;28;20047;-77
2021/09/19 10:04:12;;;;;;;4.20;3.60;;;20.20;99.90;;;;;;4976344;28;20141;-76
2021/09/19 10:06:39;;;;;;;4.03;3.50;;;20.30;99.90;;;;;;4974171;28;20051;-77
2021/09/19 10:09:07;;;;;;;4.07;3.60;;;20.40;99.90;;;;;;4973786;28;20540;-77
2021/09/19 10:11:35;;;;;;;5.72;3.70;;;20.50;99.90;;;;;;4969703;28;20121;-77
2021/09/19 10:14:03;;;;;;;4.03;3.60;;;20.40;99.90;;;;;;4971752;28;20078;-77
2021/09/19 10:16:30;;;;;;;3.72;3.33;;;20.30;99.90;;;;;;4991876;28;20050;-76
2021/09/19 10:19:01;;;;;;;3.65;3.35;;;20.40;99.90;;;;;;4975365;28;20130;-77
2021/09/19 10:21:31;;;;;;;4.30;3.90;;;20.30;99.90;;;;;;4985578;28;20051;-77
2021/09/19 10:23:59;;;;;;;5.68;3.78;;;20.30;99.90;;;;;;4962846;28;20055;-77
2021/09/19 10:26:26;;;;;;;7.22;3.60;;;20.40;99.90;;;;;;4974721;28;20757;-78
2021/09/19 10:28:55;;;;;;;4.13;3.67;;;20.40;99.90;;;;;;4976515;28;20078;-77
2021/09/19 10:31:35;;;;;;;4.00;3.60;;;20.50;99.90;;;;;;4961962;28;20245;-77
2021/09/19 10:34:05;;;;;;;3.95;3.55;;;20.70;99.90;;;;;;4957800;28;20059;-77
2021/09/19 10:36:39;;;;;;;4.28;3.88;;;21.10;99.90;;;;;;4972368;28;20115;-78
2021/09/19 10:39:37;;;;;;;4.18;3.78;;;21.20;99.90;;;;;;4962376;28;20051;-78
2021/09/19 10:42:25;;;;;;;4.95;3.97;;;21.10;99.90;;;;;;4938745;28;20417;-77
2021/09/19 10:45:11;;;;;;;3.70;3.40;;;21.10;99.90;;;;;;4960404;28;20145;-77
2021/09/19 10:47:58;;;;;;;4.15;3.70;;;20.80;99.90;;;;;;4975455;28;20282;-78
2021/09/19 10:50:31;;;;;;;6.65;3.80;;;20.70;99.90;;;;;;4958567;28;20598;-78
2021/09/19 10:53:00;;;;;;;4.28;3.65;;;20.80;99.90;;;;;;4972588;28;20051;-78
2021/09/19 10:55:33;;;;;;;5.38;3.60;;;21.00;99.90;;;;;;4976146;28;20077;-78
2021/09/19 10:58:04;;;;;;;3.83;3.50;;;21.30;99.90;;;;;;4977577;28;20082;-78
2021/09/19 11:00:32;;;;;;;5.35;3.65;;;21.50;99.90;;;;;;4972424;28;20058;-77
2021/09/19 11:03:08;;;;;;;3.92;3.38;;;21.80;99.90;;;;;;4973123;28;20073;-78
2021/09/19 11:05:42;;;;;;;5.40;3.60;;;22.00;99.90;;;;;;4978921;28;20082;-77
2021/09/19 11:08:40;;;;;;;4.47;3.40;;;21.80;99.90;;;;;;4973390;28;20051;-77
2021/09/19 11:11:13;;;;;;;3.88;3.28;;;21.80;99.90;;;;;;4969845;28;20463;-78
2021/09/19 11:13:46;;;;;;;3.60;3.30;;;21.50;99.90;;;;;;4965585;28;20134;-78
2021/09/19 11:16:26;;;;;;;3.63;3.33;;;21.30;99.90;;;;;;4963545;28;20050;-79
2021/09/19 11:18:55;;;;;;;4.00;3.60;;;21.20;99.90;;;;;;4976513;28;20572;-78
2021/09/19 11:21:42;;;;;;;3.80;3.20;;;21.00;99.90;;;;;;4967689;28;20082;-78
2021/09/19 11:24:13;;;;;;;3.50;3.20;;;20.90;99.90;;;;;;4966857;28;20058;-77
2021/09/19 11:26:42;;;;;;;4.47;3.65;;;21.00;99.90;;;;;;4968827;28;20054;-78
2021/09/19 11:29:11;;;;;;;3.92;3.35;;;21.10;99.90;;;;;;4980347;28;20065;-78
2021/09/19 11:31:40;;;;;;;4.70;4.20;;;21.20;99.90;;;;;;4982709;28;20054;-78
2021/09/19 11:34:10;;;;;;;3.63;3.33;;;21.20;99.90;;;;;;4981933;28;20129;-79
2021/09/19 11:36:42;;;;;;;4.43;3.60;;;21.00;99.90;;;;;;4987991;28;20082;-79
2021/09/19 11:39:09;;;;;;;4.63;3.85;;;20.80;99.90;;;;;;4982956;28;20061;-78
2021/09/19 11:41:36;;;;;;;4.78;3.80;;;20.70;99.90;;;;;;4983228;28;20504;-79
2021/09/19 11:44:04;;;;;;;4.88;4.07;;;20.70;99.90;;;;;;4984533;28;20472;-78
2021/09/19 11:46:31;;;;;;;4.40;3.85;;;20.70;99.90;;;;;;4981843;28;20046;-79
2021/09/19 11:48:59;;;;;;;4.15;3.75;;;20.80;99.90;;;;;;4982333;28;20042;-78
2021/09/19 11:51:27;;;;;;;4.53;4.00;;;20.80;99.90;;;;;;4981514;28;20047;-77
2021/09/19 11:53:55;;;;;;;4.60;3.63;;;20.80;99.90;;;;;;4984227;28;20404;-77
2021/09/19 11:56:24;;;;;;;4.47;3.90;;;20.90;99.90;;;;;;4979237;28;20050;-77
2021/09/19 11:58:52;;;;;;;4.65;4.00;;;21.00;99.90;;;;;;4982058;28;20524;-75
2021/09/19 12:01:25;;;;;;;4.88;3.90;;;21.00;99.90;;;;;;4983501;28;20051;-76
2021/09/19 12:03:53;;;;;;;4.43;3.80;;;20.90;99.90;;;;;;4983344;28;20130;-77
2021/09/19 12:06:22;;;;;;;4.30;3.90;;;21.00;99.90;;;;;;4978721;28;20066;-77
2021/09/19 12:08:50;;;;;;;4.50;4.00;;;21.00;99.90;;;;;;4974086;28;20054;-76
2021/09/19 12:11:18;;;;;;;4.72;3.83;;;20.90;99.90;;;;;;4973687;28;20062;-75
2021/09/19 12:13:49;;;;;;;4.63;4.13;;;20.90;99.90;;;;;;4978090;28;20054;-77
2021/09/19 12:16:22;;;;;;;4.70;4.20;;;20.90;99.90;;;;;;4971957;28;20101;-77
2021/09/19 12:18:51;;;;;;;3.80;3.50;;;20.90;99.90;;;;;;4967262;28;20051;-77
2021/09/19 12:21:20;;;;;;;5.13;4.18;;;20.90;99.90;;;;;;4974561;28;20047;-77
2021/09/19 12:23:51;;;;;;;4.97;4.05;;;20.70;99.90;;;;;;4970491;28;20054;-78
2021/09/19 12:26:21;;;;;;;5.00;4.10;;;20.80;99.90;;;;;;4975876;28;20056;-76
2021/09/19 12:28:49;;;;;;;4.78;4.15;;;20.70;99.90;;;;;;4974930;28;20043;-77
2021/09/19 12:31:36;;;;;;;5.30;4.32;;;20.70;99.90;;;;;;4968587;28;20054;-77
2021/09/19 12:34:05;;;;;;;4.40;4.00;;;20.70;99.90;;;;;;4955509;28;20134;-77
2021/09/19 12:36:39;;;;;;;4.40;3.97;;;20.80;99.90;;;;;;4956185;28;20102;-77
2021/09/19 12:39:07;;;;;;;4.55;4.10;;;20.90;99.90;;;;;;4970140;28;20051;-77
2021/09/19 12:41:34;;;;;;;4.32;3.92;;;20.90;99.90;;;;;;4961544;28;20134;-76
2021/09/19 12:44:01;;;;;;;4.28;3.88;;;20.90;99.90;;;;;;4973395;28;20046;-78
2021/09/19 12:46:28;;;;;;;4.82;4.28;;;21.00;99.90;;;;;;4973409;28;20110;-77
2021/09/19 12:49:02;;;;;;;5.45;4.45;;;21.00;99.90;;;;;;4973327;28;20142;-77
2021/09/19 12:51:29;;;;;;;4.93;4.43;;;21.00;99.90;;;;;;4973750;28;20050;-77
2021/09/19 12:53:56;;;;;;;4.75;4.25;;;21.00;99.90;;;;;;4973349;28;20130;-77
2021/09/19 12:56:24;;;;;;;5.82;4.50;;;21.00;99.90;;;;;;4973414;28;20053;-77
2021/09/19 12:58:51;;;;;;;5.10;4.57;;;21.00;99.90;;;;;;4974097;28;20078;-78